createdAt,value
2023-04-14T00:01:42.248Z,1.60
2023-04-14T00:04:09.029Z,1.38
2023-04-14T00:06:36.034Z,1.00
2023-04-14T00:09:02.674Z,1.67
2023-04-14T00:11:29.273Z,1.35
2023-04-14T00:13:57.464Z,0.90
2023-04-14T00:16:24.638Z,1.33
2023-04-14T00:18:51.326Z,1.00
2023-04-14T00:21:17.826Z,1.60
2023-04-14T00:23:44.446Z,1.17
2023-04-14T00:26:11.062Z,0.90
2023-04-14T00:28:37.650Z,1.30
2023-04-14T00:31:04.293Z,1.15
2023-04-14T00:33:30.954Z,0.98
2023-04-14T00:35:57.604Z,2.67
2023-04-14T00:38:25.993Z,0.98
2023-04-14T00:40:52.569Z,1.08
2023-04-14T00:43:19.580Z,1.15
2023-04-14T00:45:48.363Z,1.23
2023-04-14T00:48:16.890Z,1.05
2023-04-14T00:50:44.116Z,1.25
2023-04-14T00:53:12.694Z,1.17
2023-04-14T00:55:40.451Z,1.20
2023-04-14T00:58:07.537Z,0.52
2023-04-14T01:00:35.402Z,1.17
2023-04-14T01:03:02.121Z,1.98
2023-04-14T01:05:28.924Z,0.93
2023-04-14T01:07:55.809Z,1.33
2023-04-14T01:10:28.729Z,0.93
2023-04-14T01:13:33.523Z,0.85
2023-04-14T01:16:05.001Z,0.90
2023-04-14T01:18:34.406Z,0.98
2023-04-14T01:21:17.388Z,1.13
2023-04-14T01:24:11.097Z,1.10
2023-04-14T01:26:39.116Z,0.93
2023-04-14T01:29:11.603Z,0.65
2023-04-14T01:31:43.549Z,1.20
2023-04-14T01:34:13.045Z,1.05
2023-04-14T01:37:07.613Z,0.75
2023-04-14T01:39:41.648Z,0.77
2023-04-14T01:42:13.401Z,0.73
2023-04-14T01:44:41.399Z,0.50
2023-04-14T01:47:11.677Z,1.35
2023-04-14T01:49:41.209Z,0.65
2023-04-14T01:52:13.515Z,0.65
2023-04-14T01:54:42.732Z,0.80
2023-04-14T01:57:12.776Z,0.80
2023-04-14T01:59:42.363Z,0.80
2023-04-14T02:02:10.600Z,1.13
2023-04-14T02:04:38.628Z,0.85
2023-04-14T02:07:06.423Z,0.70
2023-04-14T02:09:34.293Z,0.82
2023-04-14T02:12:02.144Z,0.90
2023-04-14T02:14:31.351Z,0.80
2023-04-14T02:16:59.562Z,0.70
2023-04-14T02:19:27.572Z,1.02
2023-04-14T02:21:56.350Z,0.75
2023-04-14T02:24:23.867Z,0.85
2023-04-14T02:27:11.312Z,0.80
2023-04-14T02:29:42.274Z,0.73
2023-04-14T02:32:15.806Z,0.90
2023-04-14T02:34:54.346Z,1.00
2023-04-14T02:37:26.768Z,0.77
2023-04-14T02:40:02.973Z,0.85
2023-04-14T02:42:31.792Z,1.88
2023-04-14T02:45:05.708Z,0.60
2023-04-14T02:47:37.274Z,0.80
2023-04-14T02:50:06.474Z,0.90
2023-04-14T02:52:34.597Z,1.02
2023-04-14T02:55:03.683Z,0.90
2023-04-14T02:57:33.710Z,0.80
2023-04-14T03:00:00.838Z,0.70
2023-04-14T03:02:28.415Z,0.60
2023-04-14T03:04:55.777Z,0.73
2023-04-14T03:07:24.008Z,0.60
2023-04-14T03:09:51.746Z,0.50
2023-04-14T03:12:20.070Z,0.50
2023-04-14T03:14:48.464Z,1.38
2023-04-14T03:17:15.567Z,0.82
2023-04-14T03:19:43.934Z,0.77
2023-04-14T03:22:12.542Z,0.65
2023-04-14T03:24:40.381Z,0.70
2023-04-14T03:27:22.919Z,0.73
2023-04-14T03:29:52.961Z,0.40
2023-04-14T03:32:21.529Z,0.68
2023-04-14T03:34:51.881Z,0.60
2023-04-14T03:37:23.169Z,0.80
2023-04-14T03:39:52.253Z,0.63
2023-04-14T03:42:21.170Z,0.68
2023-04-14T03:44:53.249Z,1.05
2023-04-14T03:47:22.772Z,0.57
2023-04-14T03:49:54.507Z,0.70
2023-04-14T03:52:23.710Z,1.20
2023-04-14T03:54:53.371Z,0.75
2023-04-14T03:57:23.261Z,0.70
2023-04-14T03:59:52.087Z,0.70
2023-04-14T04:02:19.127Z,0.55
2023-04-14T04:04:46.176Z,1.02
2023-04-14T04:07:13.945Z,0.52
2023-04-14T04:09:42.858Z,0.75
2023-04-14T04:12:11.845Z,0.90
2023-04-14T04:14:40.446Z,0.88
2023-04-14T04:17:09.500Z,0.75
2023-04-14T04:19:38.242Z,0.60
2023-04-14T04:22:05.615Z,0.73
2023-04-14T04:24:38.907Z,0.70
2023-04-14T04:27:09.769Z,0.98
2023-04-14T04:29:41.383Z,0.60
2023-04-14T04:32:08.200Z,0.60
2023-04-14T04:34:35.930Z,0.82
2023-04-14T04:37:03.164Z,0.65
2023-04-14T04:39:30.491Z,1.05
2023-04-14T04:42:07.452Z,0.70
2023-04-14T04:44:35.248Z,0.70
2023-04-14T04:47:02.771Z,0.70
2023-04-14T04:49:29.408Z,0.85
2023-04-14T04:51:56.988Z,0.73
2023-04-14T04:54:23.675Z,0.80
2023-04-14T04:56:50.484Z,0.77
2023-04-14T04:59:17.487Z,0.60
2023-04-14T05:01:44.152Z,0.40
2023-04-14T05:04:12.082Z,0.70
2023-04-14T05:06:38.710Z,0.43
2023-04-14T05:09:06.013Z,0.93
2023-04-14T05:11:33.855Z,0.50
2023-04-14T05:14:00.616Z,0.60
2023-04-14T05:16:28.315Z,0.50
2023-04-14T05:18:55.007Z,0.43
2023-04-14T05:21:21.787Z,0.70
2023-04-14T05:23:48.788Z,0.57
2023-04-14T05:28:46.284Z,0.85
2023-04-14T05:31:13.686Z,0.60
2023-04-14T05:33:40.348Z,0.80
2023-04-14T05:36:07.478Z,0.60
2023-04-14T05:38:37.139Z,0.73
2023-04-14T05:41:03.695Z,1.38
2023-04-14T05:43:30.444Z,0.45
2023-04-14T05:45:58.576Z,0.80
2023-04-14T05:48:27.626Z,0.75
2023-04-14T05:50:54.160Z,0.50
2023-04-14T05:53:20.692Z,0.68
2023-04-14T05:55:48.826Z,1.30
2023-04-14T05:58:15.459Z,0.90
2023-04-14T06:00:42.026Z,0.95
2023-04-14T06:03:09.079Z,0.70
2023-04-14T06:05:35.912Z,0.70
2023-04-14T06:08:02.524Z,0.68
2023-04-14T06:10:29.132Z,0.70
2023-04-14T06:12:55.704Z,0.73
2023-04-14T06:15:22.268Z,1.05
2023-04-14T06:17:48.932Z,0.80
2023-04-14T06:20:16.105Z,0.68
2023-04-14T06:22:43.472Z,1.48
2023-04-14T06:25:11.042Z,0.80
2023-04-14T06:27:37.735Z,0.80
2023-04-14T06:30:06.143Z,1.33
2023-04-14T06:32:33.091Z,1.00
2023-04-14T06:34:59.805Z,1.02
2023-04-14T06:37:26.346Z,1.20
2023-04-14T06:39:52.954Z,0.88
2023-04-14T06:42:19.451Z,1.08
2023-04-14T06:44:46.466Z,1.17
2023-04-14T06:47:18.127Z,1.17
2023-04-14T06:49:44.770Z,1.30
2023-04-14T06:52:11.307Z,1.27
2023-04-14T06:54:37.865Z,1.35
2023-04-14T06:57:04.383Z,1.83
2023-04-14T06:59:31.191Z,1.98
2023-04-14T07:01:58.845Z,1.30
2023-04-14T07:04:25.872Z,1.38
2023-04-14T07:06:52.478Z,3.88
2023-04-14T07:09:19.490Z,1.20
2023-04-14T07:11:46.531Z,2.22
2023-04-14T07:14:13.226Z,1.70
2023-04-14T07:16:39.750Z,1.70
2023-04-14T07:19:06.323Z,1.80
2023-04-14T07:21:33.235Z,1.75
2023-04-14T07:24:00.183Z,1.20
2023-04-14T07:26:26.977Z,1.75
2023-04-14T07:28:53.529Z,2.08
2023-04-14T07:31:20.996Z,1.67
2023-04-14T07:33:47.660Z,1.45
2023-04-14T07:36:14.844Z,5.43
2023-04-14T07:38:41.621Z,2.88
2023-04-14T07:41:08.185Z,4.28
2023-04-14T07:43:37.472Z,1.42
2023-04-14T07:46:05.255Z,3.67
2023-04-14T07:48:33.687Z,8.77
2023-04-14T07:51:00.316Z,2.15
2023-04-14T07:53:26.937Z,1.55
2023-04-14T07:55:53.511Z,2.15
2023-04-14T07:58:21.260Z,1.30
2023-04-14T08:00:49.184Z,2.47
2023-04-14T08:03:17.435Z,1.55
2023-04-14T08:05:44.163Z,1.15
2023-04-14T08:08:10.727Z,1.10
2023-04-14T08:10:41.986Z,2.05
2023-04-14T08:13:09.253Z,1.50
2023-04-14T08:15:36.031Z,1.13
2023-04-14T08:18:03.005Z,1.63
2023-04-14T08:20:29.680Z,1.10
2023-04-14T08:22:57.189Z,1.17
2023-04-14T08:25:23.921Z,0.90
2023-04-14T08:27:50.561Z,1.45
2023-04-14T08:30:17.187Z,0.93
2023-04-14T08:32:43.812Z,1.00
2023-04-14T08:35:37.705Z,0.50
2023-04-14T08:37:57.241Z,0.70
2023-04-14T08:40:31.194Z,1.00
2023-04-14T08:42:57.738Z,0.60
2023-04-14T08:45:25.724Z,0.50
2023-04-14T08:47:56.871Z,0.40
2023-04-14T08:50:26.327Z,0.60
2023-04-14T08:52:59.665Z,0.68
2023-04-14T08:55:27.861Z,0.43
2023-04-14T08:57:55.565Z,0.47
2023-04-14T09:00:22.823Z,0.65
2023-04-14T09:02:50.874Z,0.80
2023-04-14T09:05:18.606Z,0.98
2023-04-14T09:07:45.244Z,0.50
2023-04-14T09:10:12.093Z,0.38
2023-04-14T09:12:41.802Z,0.38
2023-04-14T09:15:09.407Z,0.60
2023-04-14T09:17:36.729Z,0.40
2023-04-14T09:20:38.749Z,0.50
2023-04-14T09:22:50.985Z,0.68
2023-04-14T09:25:19.829Z,0.80
2023-04-14T09:27:49.076Z,0.73
2023-04-14T09:30:17.723Z,0.70
2023-04-14T09:32:45.233Z,0.77
2023-04-14T09:35:16.242Z,0.50
2023-04-14T09:37:46.968Z,0.40
2023-04-14T09:40:31.990Z,0.70
2023-04-14T09:42:59.498Z,0.50
2023-04-14T09:45:43.218Z,0.75
2023-04-14T09:48:10.895Z,0.50
2023-04-14T09:50:56.811Z,0.85
2023-04-14T09:53:52.957Z,0.60
2023-04-14T09:56:21.224Z,0.65
2023-04-14T09:58:49.026Z,0.50
2023-04-14T10:01:17.714Z,0.60
2023-04-14T10:03:48.921Z,0.50
2023-04-14T10:06:16.522Z,0.60
2023-04-14T10:08:51.663Z,0.50
2023-04-14T10:11:21.194Z,0.47
2023-04-14T10:13:58.606Z,2.25
2023-04-14T10:16:25.769Z,1.05
2023-04-14T10:18:53.766Z,0.50
2023-04-14T10:21:23.020Z,0.70
2023-04-14T10:23:50.218Z,0.52
2023-04-14T10:26:17.540Z,0.70
2023-04-14T10:28:46.879Z,0.63
2023-04-14T10:31:29.922Z,0.75
2023-04-14T10:33:56.616Z,0.90
2023-04-14T10:36:31.953Z,0.90
2023-04-14T10:39:03.600Z,0.50
2023-04-14T10:41:49.662Z,0.80
2023-04-14T10:44:35.199Z,0.85
2023-04-14T10:47:07.806Z,1.20
2023-04-14T10:49:39.617Z,0.90
2023-04-14T10:52:30.260Z,1.30
2023-04-14T10:55:07.880Z,1.10
2023-04-14T10:57:43.431Z,0.90
2023-04-14T11:00:22.449Z,1.05
2023-04-14T11:03:04.466Z,1.02
2023-04-14T11:05:35.618Z,0.70
2023-04-14T11:08:16.578Z,0.90
2023-04-14T11:10:51.133Z,0.98
2023-04-14T11:13:17.953Z,0.50
2023-04-14T11:15:50.053Z,0.50
2023-04-14T11:18:19.947Z,0.40
2023-04-14T11:20:46.753Z,0.25
2023-04-14T11:23:15.110Z,0.40
2023-04-14T11:25:41.877Z,0.30
2023-04-14T11:28:08.871Z,0.50
2023-04-14T11:30:35.445Z,0.60
2023-04-14T11:33:02.132Z,0.25
2023-04-14T11:35:30.107Z,0.90
2023-04-14T11:37:58.050Z,0.20
2023-04-14T11:40:27.275Z,0.20
2023-04-14T11:42:57.103Z,0.20
2023-04-14T11:45:28.849Z,0.28
2023-04-14T11:48:06.215Z,0.63
2023-04-14T11:50:35.940Z,0.20
2023-04-14T11:53:06.576Z,0.30
2023-04-14T11:55:34.952Z,0.22
2023-04-14T11:58:02.325Z,0.65
2023-04-14T12:00:29.012Z,0.50
2023-04-14T12:02:56.793Z,0.20
2023-04-14T12:05:30.269Z,0.30
2023-04-14T12:08:07.404Z,0.20
2023-04-14T12:10:37.283Z,0.40
2023-04-14T12:13:11.382Z,0.10
2023-04-14T12:15:42.268Z,0.17
2023-04-14T12:18:13.690Z,0.38
2023-04-14T12:20:45.524Z,0.20
2023-04-14T12:23:12.395Z,0.15
2023-04-14T12:25:39.917Z,0.20
2023-04-14T12:28:07.009Z,0.20
2023-04-14T12:30:34.632Z,0.20
2023-04-14T12:33:10.007Z,0.10
2023-04-14T12:35:37.487Z,0.20
2023-04-14T12:38:17.065Z,0.10
2023-04-14T12:40:46.052Z,0.43
2023-04-14T12:43:14.073Z,0.22
2023-04-14T12:45:46.029Z,0.30
2023-04-14T12:48:13.903Z,0.20
2023-04-14T12:50:40.648Z,0.30
2023-04-14T12:53:24.943Z,0.20
2023-04-14T12:56:14.053Z,0.45
2023-04-14T12:58:42.906Z,0.20
2023-04-14T13:01:13.881Z,0.20
2023-04-14T13:03:50.562Z,0.20
2023-04-14T13:06:19.173Z,0.20
2023-04-14T13:08:47.210Z,0.20
2023-04-14T13:11:14.750Z,0.40
2023-04-14T13:13:41.650Z,0.30
2023-04-14T13:16:15.423Z,0.30
2023-04-14T13:18:43.453Z,0.40
2023-04-14T13:21:11.197Z,0.40
2023-04-14T13:23:37.795Z,0.85
2023-04-14T13:26:04.405Z,0.70
2023-04-14T13:28:31.657Z,0.85
2023-04-14T13:30:58.482Z,0.90
2023-04-14T13:33:25.930Z,1.00
2023-04-14T13:35:53.529Z,0.50
2023-04-14T13:38:20.191Z,0.63
2023-04-14T13:40:48.236Z,0.60
2023-04-14T13:43:18.021Z,0.68
2023-04-14T13:45:44.824Z,0.60
2023-04-14T13:48:12.869Z,0.60
2023-04-14T13:50:39.467Z,0.73
2023-04-14T13:53:06.052Z,0.55
2023-04-14T13:55:35.372Z,0.70
2023-04-14T13:58:01.951Z,0.60
2023-04-14T14:00:28.495Z,0.95
2023-04-14T14:02:55.180Z,0.68
2023-04-14T14:05:21.853Z,1.10
2023-04-14T14:07:48.381Z,0.60
2023-04-14T14:10:14.969Z,0.93
2023-04-14T14:12:41.947Z,1.20
2023-04-14T14:15:08.976Z,0.93
2023-04-14T14:17:36.840Z,1.25
2023-04-14T14:20:03.986Z,0.80
2023-04-14T14:22:30.826Z,0.95
2023-04-14T14:25:10.742Z,1.40
2023-04-14T14:27:42.324Z,1.05
2023-04-14T14:30:09.385Z,1.60
2023-04-14T14:32:36.069Z,1.13
2023-04-14T14:35:04.362Z,1.17
2023-04-14T14:37:31.014Z,0.70
2023-04-14T14:39:57.938Z,1.33
2023-04-14T14:42:24.511Z,1.13
2023-04-14T14:44:51.443Z,0.88
2023-04-14T14:47:18.116Z,1.17
2023-04-14T14:49:56.732Z,1.30
2023-04-14T14:52:29.570Z,1.20
2023-04-14T14:54:56.165Z,1.65
2023-04-14T14:57:22.980Z,1.10
2023-04-14T14:59:49.477Z,1.40
2023-04-14T15:02:17.131Z,1.00
2023-04-14T15:04:43.990Z,1.05
2023-04-14T15:07:10.665Z,1.45
2023-04-14T15:09:37.345Z,1.55
2023-04-14T15:12:03.984Z,4.78
2023-04-14T15:14:30.570Z,4.65
2023-04-14T15:16:57.289Z,5.07
2023-04-14T15:19:24.214Z,1.08
2023-04-14T15:21:51.674Z,2.40
2023-04-14T15:24:18.236Z,1.67
2023-04-14T15:26:44.753Z,1.77
2023-04-14T15:29:11.565Z,2.13
2023-04-14T15:31:38.161Z,2.53
2023-04-14T15:34:05.091Z,2.45
2023-04-14T15:36:31.806Z,2.38
2023-04-14T15:38:58.564Z,2.42
2023-04-14T15:41:25.417Z,2.78
2023-04-14T15:43:51.950Z,2.83
2023-04-14T15:46:19.345Z,2.80
2023-04-14T15:48:46.017Z,2.05
2023-04-14T15:51:12.685Z,2.70
2023-04-14T15:53:39.307Z,3.50
2023-04-14T15:56:06.019Z,2.45
2023-04-14T15:58:32.532Z,2.17
2023-04-14T16:00:59.133Z,2.38
2023-04-14T16:03:26.115Z,3.33
2023-04-14T16:06:03.745Z,3.47
2023-04-14T16:08:30.449Z,2.72
2023-04-14T16:10:57.045Z,3.33
2023-04-14T16:13:23.678Z,3.35
2023-04-14T16:15:50.860Z,3.55
2023-04-14T16:18:17.409Z,4.30
2023-04-14T16:20:44.110Z,4.32
2023-04-14T16:23:10.821Z,4.43
2023-04-14T16:25:37.730Z,3.63
2023-04-14T16:28:04.539Z,4.68
2023-04-14T16:30:31.749Z,4.40
2023-04-14T16:32:58.425Z,4.68
2023-04-14T16:35:25.952Z,3.58
2023-04-14T16:37:53.266Z,4.22
2023-04-14T16:40:19.866Z,4.40
2023-04-14T16:42:47.313Z,5.22
2023-04-14T16:45:13.965Z,5.13
2023-04-14T16:47:40.616Z,4.38
2023-04-14T16:50:08.130Z,6.35
2023-04-14T16:52:35.146Z,4.72
2023-04-14T16:55:02.006Z,5.53
2023-04-14T16:57:28.863Z,5.65
2023-04-14T16:59:55.569Z,6.07
2023-04-14T17:02:27.220Z,5.72
2023-04-14T17:04:53.858Z,5.18
2023-04-14T17:07:20.974Z,5.80
2023-04-14T17:09:47.978Z,5.60
2023-04-14T17:12:14.514Z,6.00
2023-04-14T17:14:41.343Z,5.80
2023-04-14T17:17:07.950Z,5.93
2023-04-14T17:19:34.730Z,7.30
2023-04-14T17:22:01.347Z,5.95
2023-04-14T17:24:29.628Z,6.45
2023-04-14T17:26:57.279Z,4.97
2023-04-14T17:29:23.927Z,5.72
2023-04-14T17:31:50.694Z,6.28
2023-04-14T17:34:19.307Z,8.00
2023-04-14T17:36:46.642Z,7.85
2023-04-14T17:39:13.720Z,7.65
2023-04-14T17:41:40.337Z,5.93
2023-04-14T17:44:07.197Z,7.47
2023-04-14T17:46:33.870Z,6.85
2023-04-14T17:49:04.066Z,7.78
2023-04-14T17:51:31.412Z,7.00
2023-04-14T17:53:58.204Z,7.47
2023-04-14T17:56:25.467Z,7.45
2023-04-14T17:58:52.209Z,7.43
2023-04-14T18:01:19.518Z,7.18
2023-04-14T18:03:46.331Z,6.57
2023-04-14T18:06:13.517Z,7.60
2023-04-14T18:08:40.040Z,6.13
2023-04-14T18:11:07.156Z,7.28
2023-04-14T18:13:34.695Z,5.10
2023-04-14T18:16:01.838Z,5.72
2023-04-14T18:18:28.532Z,5.80
2023-04-14T18:20:55.935Z,5.55
2023-04-14T18:23:22.488Z,5.45
2023-04-14T18:28:28.864Z,3.75
2023-04-14T18:30:58.326Z,5.63
2023-04-14T18:33:26.386Z,4.03
2023-04-14T18:35:55.649Z,5.72
2023-04-14T18:38:23.060Z,7.28
2023-04-14T18:40:50.204Z,4.53
2023-04-14T18:43:17.610Z,3.97
2023-04-14T18:45:48.679Z,6.35
2023-04-14T18:48:16.200Z,5.90
2023-04-14T18:50:43.898Z,5.45
2023-04-14T18:53:11.178Z,4.70
2023-04-14T18:55:45.080Z,5.88
2023-04-14T18:58:12.937Z,5.05
2023-04-14T19:00:40.279Z,6.30
2023-04-14T19:03:08.563Z,4.35
2023-04-14T19:05:36.960Z,5.32
2023-04-14T19:08:07.487Z,6.43
2023-04-14T19:10:34.592Z,6.07
2023-04-14T19:13:01.208Z,7.45
2023-04-14T19:15:29.004Z,5.20
2023-04-14T19:17:55.996Z,6.32
2023-04-14T19:20:23.720Z,6.47
2023-04-14T19:22:50.568Z,6.32
2023-04-14T19:25:17.355Z,6.80
2023-04-14T19:27:44.049Z,5.97
2023-04-14T19:30:11.123Z,5.97
2023-04-14T19:32:37.745Z,8.27
2023-04-14T19:35:07.700Z,7.57
2023-04-14T19:37:38.414Z,6.07
2023-04-14T19:40:06.515Z,6.95
2023-04-14T19:42:33.490Z,7.15
2023-04-14T19:45:01.140Z,7.65
2023-04-14T19:47:27.909Z,7.22
2023-04-14T19:49:55.172Z,6.43
2023-04-14T19:52:22.360Z,6.28
2023-04-14T19:54:49.675Z,6.55
2023-04-14T19:57:16.956Z,6.70
2023-04-14T19:59:44.218Z,6.03
2023-04-14T20:02:13.249Z,7.15
2023-04-14T20:04:40.452Z,5.95
2023-04-14T20:07:07.441Z,6.70
2023-04-14T20:09:34.582Z,8.57
2023-04-14T20:12:02.532Z,7.18
2023-04-14T20:14:29.461Z,6.65
2023-04-14T20:16:56.653Z,5.78
2023-04-14T20:19:24.527Z,6.28
2023-04-14T20:21:51.300Z,6.43
2023-04-14T20:24:18.771Z,6.15
2023-04-14T20:26:45.445Z,6.25
2023-04-14T20:29:12.638Z,8.50
2023-04-14T20:31:39.829Z,7.47
2023-04-14T20:34:06.533Z,7.05
2023-04-14T20:36:36.195Z,6.68
2023-04-14T20:39:07.191Z,7.18
2023-04-14T20:41:34.686Z,5.32
2023-04-14T20:44:01.483Z,7.47
2023-04-14T20:46:28.883Z,6.32
2023-04-14T20:48:56.691Z,6.05
2023-04-14T20:51:23.651Z,5.55
2023-04-14T20:53:50.784Z,5.22
2023-04-14T20:56:17.821Z,6.40
2023-04-14T20:58:45.569Z,6.72
2023-04-14T21:01:12.456Z,6.05
2023-04-14T21:03:39.410Z,6.88
2023-04-14T21:06:06.691Z,7.53
2023-04-14T21:08:33.777Z,6.95
2023-04-14T21:11:15.678Z,6.75
2023-04-14T21:15:41.649Z,6.57
2023-04-14T21:16:32.402Z,6.05
2023-04-14T21:18:59.236Z,6.20
2023-04-14T21:21:27.085Z,5.95
2023-04-14T21:23:54.006Z,6.18
2023-04-14T21:26:20.617Z,5.85
2023-04-14T21:28:47.330Z,7.10
2023-04-14T21:31:14.023Z,5.93
2023-04-14T21:33:41.774Z,6.32
2023-04-14T21:36:09.758Z,6.40
2023-04-14T21:38:37.867Z,5.82
2023-04-14T21:41:05.225Z,6.72
2023-04-14T21:43:32.736Z,5.13
2023-04-14T21:45:59.442Z,5.38
2023-04-14T21:48:26.109Z,7.55
2023-04-14T21:50:52.621Z,4.80
2023-04-14T21:53:19.370Z,5.20
2023-04-14T21:55:46.894Z,5.63
2023-04-14T21:58:13.588Z,4.40
2023-04-14T22:00:41.763Z,5.03
2023-04-14T22:03:08.507Z,5.65
2023-04-14T22:05:35.244Z,7.40
2023-04-14T22:08:01.785Z,6.30
2023-04-14T22:10:32.153Z,5.75
2023-04-14T22:13:03.093Z,4.93
2023-04-14T22:15:29.631Z,6.80
2023-04-14T22:17:56.378Z,4.35
2023-04-14T22:20:23.812Z,5.50
2023-04-14T22:22:50.417Z,5.22
2023-04-14T22:25:16.960Z,4.65
2023-04-14T22:27:43.505Z,4.10
2023-04-14T22:30:10.852Z,4.43
2023-04-14T22:32:37.462Z,4.68
2023-04-14T22:35:04.428Z,5.40
2023-04-14T22:37:31.258Z,6.40
2023-04-14T22:39:57.910Z,6.20
2023-04-14T22:42:25.968Z,5.10
2023-04-14T22:44:53.581Z,7.25
2023-04-14T22:47:20.813Z,6.10
2023-04-14T22:49:47.366Z,6.15
2023-04-14T22:52:13.913Z,6.35
2023-04-14T22:54:41.701Z,5.32
2023-04-14T22:57:09.408Z,6.70
2023-04-14T22:59:37.117Z,6.72
2023-04-14T23:02:04.349Z,5.93
2023-04-14T23:04:31.530Z,4.55
2023-04-14T23:06:58.127Z,5.07
2023-04-14T23:09:24.695Z,5.03
2023-04-14T23:11:51.216Z,6.25
2023-04-14T23:14:17.746Z,5.55
2023-04-14T23:16:44.334Z,5.82
2023-04-14T23:19:11.354Z,5.32
2023-04-14T23:21:37.880Z,4.85
2023-04-14T23:24:04.867Z,5.43
2023-04-14T23:26:31.567Z,6.90
2023-04-14T23:28:58.109Z,5.53
2023-04-14T23:31:24.753Z,5.65
2023-04-14T23:33:52.862Z,4.90
2023-04-14T23:36:19.857Z,6.28
2023-04-14T23:38:46.403Z,6.32
2023-04-14T23:41:13.483Z,5.43
2023-04-14T23:43:40.130Z,4.63
2023-04-14T23:46:06.662Z,4.97
2023-04-14T23:48:33.164Z,5.68
2023-04-14T23:51:13.712Z,5.45
2023-04-14T23:53:45.032Z,5.03
2023-04-14T23:56:11.588Z,5.88
2023-04-14T23:58:38.128Z,5.43
